createdAt,value
2023-05-14T00:02:33.957Z,60.11
2023-05-14T00:07:32.952Z,58.26
2023-05-14T00:12:32.057Z,58.80
2023-05-14T00:17:31.458Z,59.82
2023-05-14T00:22:31.142Z,61.11
2023-05-14T00:27:30.139Z,60.63
2023-05-14T00:32:30.031Z,62.13
2023-05-14T00:37:29.861Z,60.73
2023-05-14T00:42:29.149Z,61.00
2023-05-14T00:47:28.581Z,61.88
2023-05-14T00:52:28.849Z,62.08
2023-05-14T00:57:28.514Z,61.50
2023-05-14T01:02:28.385Z,61.52
2023-05-14T01:07:38.970Z,62.23
2023-05-14T01:12:45.390Z,62.09
2023-05-14T01:17:51.883Z,62.26
2023-05-14T01:22:51.297Z,63.27
2023-05-14T01:28:02.583Z,62.65
2023-05-14T01:33:07.731Z,62.38
2023-05-14T01:38:12.561Z,62.80
2023-05-14T01:43:12.138Z,62.56
2023-05-14T01:48:11.384Z,62.75
2023-05-14T01:53:11.018Z,63.31
2023-05-14T01:58:10.399Z,63.67
2023-05-14T02:03:09.381Z,63.24
2023-05-14T02:08:09.306Z,63.32
2023-05-14T02:13:09.650Z,62.40
2023-05-14T02:18:08.915Z,62.12
2023-05-14T02:23:08.398Z,62.55
2023-05-14T02:28:08.139Z,63.32
2023-05-14T02:33:07.678Z,64.24
2023-05-14T02:38:07.965Z,64.33
2023-05-14T02:43:07.012Z,64.74
2023-05-14T02:48:07.002Z,65.10
2023-05-14T02:53:06.376Z,65.42
2023-05-14T02:58:05.374Z,65.21
2023-05-14T03:03:04.050Z,65.52
2023-05-14T03:08:04.029Z,65.40
2023-05-14T03:13:03.292Z,65.16
2023-05-14T03:18:01.945Z,64.99
2023-05-14T03:23:00.783Z,64.81
2023-05-14T03:27:59.831Z,64.71
2023-05-14T03:32:59.135Z,65.01
2023-05-14T03:37:59.592Z,64.84
2023-05-14T03:42:59.161Z,64.57
2023-05-14T03:47:58.165Z,65.02
2023-05-14T03:52:58.193Z,66.00
2023-05-14T03:57:57.318Z,66.49
2023-05-14T04:02:56.476Z,66.23
2023-05-14T04:07:58.373Z,66.03
2023-05-14T04:13:00.208Z,66.08
2023-05-14T04:18:03.493Z,66.08
2023-05-14T04:23:02.594Z,66.12
2023-05-14T04:28:01.830Z,66.06
2023-05-14T04:33:00.683Z,66.31
2023-05-14T04:37:59.624Z,66.47
2023-05-14T04:42:58.856Z,66.42
2023-05-14T04:47:58.315Z,66.68
2023-05-14T04:52:57.084Z,66.92
2023-05-14T04:57:56.518Z,66.94
2023-05-14T05:02:56.104Z,67.08
2023-05-14T05:07:55.729Z,66.92
2023-05-14T05:12:54.675Z,66.79
2023-05-14T05:17:54.052Z,66.50
2023-05-14T05:22:52.968Z,66.53
2023-05-14T05:27:51.709Z,65.72
2023-05-14T05:32:51.224Z,65.35
2023-05-14T05:37:50.869Z,65.43
2023-05-14T05:42:50.472Z,64.64
2023-05-14T05:47:49.908Z,64.39
2023-05-14T05:52:48.839Z,63.84
2023-05-14T05:57:48.105Z,63.26
2023-05-14T06:02:48.052Z,62.44
2023-05-14T06:07:47.510Z,61.64
2023-05-14T06:12:46.770Z,60.92
2023-05-14T06:17:46.076Z,60.21
2023-05-14T06:22:45.381Z,59.40
2023-05-14T06:27:44.210Z,58.82
2023-05-14T06:32:43.129Z,58.33
2023-05-14T06:37:42.767Z,57.52
2023-05-14T06:42:42.047Z,56.85
2023-05-14T06:47:41.489Z,55.87
2023-05-14T06:52:43.720Z,54.67
2023-05-14T06:57:44.918Z,53.30
2023-05-14T07:02:44.419Z,52.31
2023-05-14T07:07:43.450Z,50.11
2023-05-14T07:12:41.968Z,49.99
2023-05-14T07:17:41.276Z,48.25
2023-05-14T07:22:41.465Z,46.78
2023-05-14T07:27:40.658Z,45.98
2023-05-14T07:32:40.122Z,44.66
2023-05-14T07:37:39.178Z,43.45
2023-05-14T07:42:38.988Z,42.25
2023-05-14T07:47:37.741Z,42.03
2023-05-14T07:52:37.273Z,39.73
2023-05-14T07:57:37.531Z,39.20
2023-05-14T08:02:37.383Z,38.07
2023-05-14T08:07:38.001Z,36.45
2023-05-14T08:12:37.563Z,36.54
2023-05-14T08:17:36.776Z,36.26
2023-05-14T08:22:35.757Z,35.29
2023-05-14T08:27:35.354Z,35.06
2023-05-14T08:32:34.719Z,35.36
2023-05-14T08:37:34.262Z,35.39
2023-05-14T08:42:33.962Z,35.18
2023-05-14T08:47:35.085Z,33.50
2023-05-14T08:52:35.130Z,33.71
2023-05-14T08:57:36.262Z,34.21
2023-05-14T09:02:37.353Z,33.02
2023-05-14T09:07:36.811Z,31.88
2023-05-14T09:12:36.264Z,32.26
2023-05-14T09:17:37.039Z,33.19
2023-05-14T09:22:37.323Z,33.19
2023-05-14T09:27:37.901Z,33.43
2023-05-14T09:32:46.144Z,31.64
2023-05-14T09:37:49.393Z,30.89
2023-05-14T09:42:49.434Z,30.22
2023-05-14T09:47:48.797Z,30.57
2023-05-14T09:52:47.953Z,30.39
2023-05-14T09:57:47.023Z,30.56
2023-05-14T10:02:49.419Z,30.17
2023-05-14T10:07:54.892Z,29.53
2023-05-14T10:13:04.508Z,28.47
2023-05-14T10:18:11.340Z,28.08
2023-05-14T10:23:11.609Z,28.73
2023-05-14T10:28:11.718Z,29.18
2023-05-14T10:33:18.903Z,28.86
2023-05-14T10:38:23.306Z,28.72
2023-05-14T10:43:22.663Z,28.51
2023-05-14T10:48:21.768Z,27.64
2023-05-14T10:53:22.484Z,27.10
2023-05-14T10:58:23.038Z,26.81
2023-05-14T11:03:24.592Z,26.49
2023-05-14T11:08:29.394Z,27.96
2023-05-14T11:13:31.431Z,27.97
2023-05-14T11:18:38.899Z,27.08
2023-05-14T11:23:39.087Z,27.80
2023-05-14T11:28:38.856Z,27.28
2023-05-14T11:33:38.831Z,25.64
2023-05-14T11:38:47.498Z,23.91
2023-05-14T11:43:47.636Z,24.44
2023-05-14T11:48:46.954Z,24.82
2023-05-14T11:53:46.632Z,25.25
2023-05-14T11:58:51.384Z,24.38
2023-05-14T12:03:51.657Z,23.23
2023-05-14T12:08:52.873Z,23.25
2023-05-14T12:13:52.329Z,24.11
2023-05-14T12:18:51.393Z,23.80
2023-05-14T12:23:58.224Z,24.50
2023-05-14T12:29:03.601Z,25.39
2023-05-14T12:34:03.916Z,24.44
2023-05-14T12:39:07.263Z,22.81
2023-05-14T12:44:08.988Z,23.50
2023-05-14T12:49:08.450Z,23.35
2023-05-14T12:54:07.494Z,23.27
2023-05-14T12:59:06.850Z,22.43
2023-05-14T13:04:08.155Z,22.00
2023-05-14T13:09:07.238Z,21.61
2023-05-14T13:14:06.893Z,21.27
2023-05-14T13:19:06.109Z,22.23
2023-05-14T13:24:05.414Z,22.91
2023-05-14T13:29:05.106Z,22.52
2023-05-14T13:34:04.354Z,21.16
2023-05-14T13:39:03.908Z,20.62
2023-05-14T13:44:03.521Z,21.47
2023-05-14T13:49:02.258Z,19.93
2023-05-14T13:54:01.456Z,19.39
2023-05-14T13:59:03.593Z,19.39
2023-05-14T14:04:03.568Z,19.66
2023-05-14T14:09:02.855Z,19.00
2023-05-14T14:14:02.013Z,18.35
2023-05-14T14:19:01.267Z,18.39
2023-05-14T14:24:00.285Z,18.23
2023-05-14T14:28:59.670Z,18.89
2023-05-14T14:33:58.758Z,19.16
2023-05-14T14:38:58.241Z,19.94
2023-05-14T14:43:57.552Z,20.57
2023-05-14T14:48:56.659Z,19.88
2023-05-14T14:53:55.578Z,19.43
2023-05-14T14:58:55.414Z,18.93
2023-05-14T15:03:55.067Z,19.68
2023-05-14T15:08:54.235Z,19.99
2023-05-14T15:13:53.239Z,18.97
2023-05-14T15:18:52.729Z,19.05
2023-05-14T15:23:52.013Z,18.18
2023-05-14T15:28:51.151Z,17.24
2023-05-14T15:33:52.474Z,16.28
2023-05-14T15:38:51.769Z,15.37
2023-05-14T15:43:51.622Z,14.91
2023-05-14T15:48:50.217Z,14.07
2023-05-14T15:53:50.196Z,13.87
2023-05-14T15:58:49.388Z,14.18
2023-05-14T16:03:48.696Z,14.86
2023-05-14T16:08:48.411Z,15.77
2023-05-14T16:13:47.599Z,16.64
2023-05-14T16:18:47.591Z,17.15
2023-05-14T16:23:47.196Z,17.49
2023-05-14T16:28:46.419Z,18.39
2023-05-14T16:33:45.337Z,18.68
2023-05-14T16:39:05.353Z,18.58
2023-05-14T16:44:04.447Z,17.38
2023-05-14T16:49:03.990Z,16.70
2023-05-14T16:54:03.113Z,16.73
2023-05-14T16:59:02.132Z,15.66
2023-05-14T17:04:02.886Z,14.92
2023-05-14T17:09:02.384Z,14.87
2023-05-14T17:14:01.648Z,14.77
2023-05-14T17:18:59.451Z,15.42
2023-05-14T17:23:58.850Z,16.43
2023-05-14T17:28:58.612Z,17.56
2023-05-14T17:34:00.022Z,18.71
2023-05-14T17:39:01.529Z,19.63
2023-05-14T17:44:00.882Z,20.78
2023-05-14T17:48:59.833Z,21.85
2023-05-14T17:53:59.178Z,22.14
2023-05-14T17:58:58.548Z,22.70
2023-05-14T18:03:58.002Z,23.63
2023-05-14T18:08:57.474Z,24.22
2023-05-14T18:13:56.416Z,24.79
2023-05-14T18:18:56.424Z,25.48
2023-05-14T18:23:56.178Z,25.71
2023-05-14T18:28:55.620Z,26.38
2023-05-14T18:33:54.723Z,26.77
2023-05-14T18:38:53.527Z,27.31
2023-05-14T18:43:52.856Z,27.98
2023-05-14T18:48:52.242Z,28.28
2023-05-14T18:53:51.720Z,28.53
2023-05-14T18:58:51.106Z,28.73
2023-05-14T19:03:50.332Z,29.28
2023-05-14T19:08:50.581Z,29.74
2023-05-14T19:13:49.917Z,29.78
2023-05-14T19:18:49.333Z,30.25
2023-05-14T19:23:49.971Z,30.68
2023-05-14T19:28:49.151Z,30.88
2023-05-14T19:33:48.806Z,31.40
2023-05-14T19:38:48.584Z,31.90
2023-05-14T19:43:47.625Z,32.24
2023-05-14T19:48:48.690Z,32.66
2023-05-14T19:53:47.819Z,33.10
2023-05-14T19:58:47.556Z,33.72
2023-05-14T20:03:47.388Z,34.01
2023-05-14T20:08:46.709Z,34.47
2023-05-14T20:13:48.776Z,34.67
2023-05-14T20:18:48.930Z,35.16
2023-05-14T20:23:48.499Z,35.82
2023-05-14T20:28:48.430Z,35.96
2023-05-14T20:33:47.967Z,36.50
2023-05-14T20:38:47.894Z,36.47
2023-05-14T20:43:47.534Z,36.79
2023-05-14T20:48:48.449Z,36.99
2023-05-14T20:53:49.094Z,37.51
2023-05-14T20:58:49.084Z,37.86
2023-05-14T21:03:48.589Z,37.94
2023-05-14T21:08:48.799Z,38.36
2023-05-14T21:13:49.272Z,38.35
2023-05-14T21:18:48.219Z,38.83
2023-05-14T21:23:47.796Z,38.93
2023-05-14T21:28:47.404Z,39.37
2023-05-14T21:33:49.304Z,39.70
2023-05-14T21:38:48.515Z,40.22
2023-05-14T21:43:48.445Z,40.33
2023-05-14T21:48:47.860Z,40.63
2023-05-14T21:53:48.489Z,40.56
2023-05-14T21:58:48.899Z,41.13
2023-05-14T22:03:48.529Z,41.24
2023-05-14T22:08:47.784Z,41.25
2023-05-14T22:13:48.226Z,41.59
2023-05-14T22:18:47.527Z,42.05
2023-05-14T22:23:49.175Z,42.43
2023-05-14T22:28:49.718Z,41.96
2023-05-14T22:33:48.893Z,42.19
2023-05-14T22:38:47.561Z,42.61
2023-05-14T22:43:48.838Z,42.38
2023-05-14T22:48:49.295Z,42.58
2023-05-14T22:53:48.868Z,42.89
2023-05-14T22:58:48.155Z,43.18
2023-05-14T23:03:47.965Z,43.53
2023-05-14T23:08:47.224Z,42.98
2023-05-14T23:13:46.294Z,43.26
2023-05-14T23:18:45.825Z,44.02
2023-05-14T23:23:45.624Z,43.97
2023-05-14T23:28:44.349Z,44.18
2023-05-14T23:33:44.780Z,43.79
2023-05-14T23:38:44.579Z,44.21
2023-05-14T23:43:44.207Z,44.14
2023-05-14T23:48:43.578Z,44.30
2023-05-14T23:53:42.387Z,44.05
2023-05-14T23:58:41.658Z,44.30
